createdAt,value
2022-12-11T00:00:22.117Z,7.50
2022-12-11T00:02:49.437Z,7.60
2022-12-11T00:05:16.312Z,7.60
2022-12-11T00:07:43.167Z,7.60
2022-12-11T00:10:09.980Z,7.60
2022-12-11T00:12:36.727Z,7.70
2022-12-11T00:15:03.709Z,7.60
2022-12-11T00:17:30.465Z,7.70
2022-12-11T00:19:57.192Z,7.70
2022-12-11T00:22:23.982Z,7.70
2022-12-11T00:24:51.772Z,7.80
2022-12-11T00:27:18.541Z,7.80
2022-12-11T00:29:45.382Z,7.70
2022-12-11T00:32:12.301Z,7.60
2022-12-11T00:34:39.322Z,7.60
2022-12-11T00:37:06.140Z,7.60
2022-12-11T00:39:32.905Z,7.60
2022-12-11T00:41:59.800Z,7.60
2022-12-11T00:44:26.498Z,7.60
2022-12-11T00:46:53.331Z,7.70
2022-12-11T00:49:20.071Z,7.60
2022-12-11T00:51:46.915Z,7.60
2022-12-11T00:54:13.654Z,7.60
2022-12-11T00:56:40.497Z,7.50
2022-12-11T00:59:07.443Z,7.50
2022-12-11T01:01:34.275Z,7.50
2022-12-11T01:04:01.078Z,7.50
2022-12-11T01:06:28.842Z,7.50
2022-12-11T01:09:14.986Z,7.50
2022-12-11T01:11:43.064Z,7.50
2022-12-11T01:14:11.091Z,7.50
2022-12-11T01:16:38.260Z,7.50
2022-12-11T01:19:05.238Z,7.50
2022-12-11T01:21:32.083Z,7.50
2022-12-11T01:23:59.013Z,7.60
2022-12-11T01:26:25.859Z,7.60
2022-12-11T01:28:52.698Z,7.60
2022-12-11T01:31:22.358Z,7.50
2022-12-11T01:33:49.457Z,7.50
2022-12-11T01:36:20.856Z,7.50
2022-12-11T01:38:49.299Z,7.50
2022-12-11T01:41:17.870Z,7.40
2022-12-11T01:44:07.024Z,7.50
2022-12-11T01:46:36.289Z,7.50
2022-12-11T01:49:07.326Z,7.50
2022-12-11T01:51:39.925Z,7.60
2022-12-11T01:54:11.407Z,7.60
2022-12-11T01:56:41.334Z,7.40
2022-12-11T01:59:09.968Z,7.50
2022-12-11T02:02:03.210Z,7.40
2022-12-11T02:04:31.087Z,7.40
2022-12-11T02:06:57.927Z,7.50
2022-12-11T02:09:29.072Z,7.60
2022-12-11T02:12:07.903Z,7.60
2022-12-11T02:14:46.207Z,7.60
2022-12-11T02:17:18.626Z,7.60
2022-12-11T02:20:03.916Z,7.60
2022-12-11T02:23:07.665Z,7.60
2022-12-11T02:25:42.035Z,7.70
2022-12-11T02:28:36.013Z,7.80
2022-12-11T02:31:10.456Z,7.80
2022-12-11T02:33:45.848Z,7.70
2022-12-11T02:36:16.200Z,7.70
2022-12-11T02:38:46.936Z,7.80
2022-12-11T02:41:13.778Z,7.80
2022-12-11T02:43:42.520Z,7.80
2022-12-11T02:46:10.401Z,7.80
2022-12-11T02:48:37.919Z,7.80
2022-12-11T02:51:06.835Z,7.60
2022-12-11T02:53:37.566Z,7.70
2022-12-11T02:56:20.794Z,7.70
2022-12-11T02:58:58.681Z,7.70
2022-12-11T03:01:27.021Z,7.80
2022-12-11T03:03:55.556Z,7.70
2022-12-11T03:06:27.766Z,7.70
2022-12-11T03:08:54.534Z,7.70
2022-12-11T03:11:21.408Z,7.70
2022-12-11T03:13:48.304Z,7.80
2022-12-11T03:16:39.214Z,7.60
2022-12-11T03:19:13.083Z,7.70
2022-12-11T03:21:58.969Z,7.80
2022-12-11T03:24:35.528Z,7.90
2022-12-11T03:27:14.966Z,7.90
2022-12-11T03:29:55.631Z,7.80
2022-12-11T03:32:27.601Z,7.80
2022-12-11T03:35:03.720Z,7.70
2022-12-11T03:37:35.374Z,7.70
2022-12-11T03:40:09.194Z,7.70
2022-12-11T03:42:37.503Z,7.50
2022-12-11T03:45:06.692Z,7.60
2022-12-11T03:47:34.517Z,7.60
2022-12-11T03:50:04.423Z,7.50
2022-12-11T03:52:32.750Z,7.60
2022-12-11T03:55:01.896Z,7.60
2022-12-11T03:57:31.725Z,7.60
2022-12-11T03:59:58.705Z,7.60
2022-12-11T04:02:25.548Z,7.60
2022-12-11T04:04:52.340Z,7.60
2022-12-11T04:07:19.237Z,7.60
2022-12-11T04:09:46.002Z,7.50
2022-12-11T04:12:12.818Z,7.50
2022-12-11T04:14:57.991Z,7.50
2022-12-11T04:17:43.420Z,7.60
2022-12-11T04:20:28.962Z,7.50
2022-12-11T04:23:15.966Z,7.50
2022-12-11T04:25:42.766Z,7.50
2022-12-11T04:28:09.868Z,7.40
2022-12-11T04:30:36.597Z,7.40
2022-12-11T04:33:04.371Z,7.40
2022-12-11T04:35:31.330Z,7.40
2022-12-11T04:37:58.664Z,7.40
2022-12-11T04:40:25.501Z,7.50
2022-12-11T04:42:52.285Z,7.50
2022-12-11T04:45:19.085Z,7.50
2022-12-11T04:47:45.988Z,7.60
2022-12-11T04:50:14.387Z,7.60
2022-12-11T04:52:41.412Z,7.70
2022-12-11T04:55:09.055Z,7.70
2022-12-11T04:57:36.129Z,7.90
2022-12-11T05:00:05.314Z,8.00
2022-12-11T05:02:34.989Z,7.90
2022-12-11T05:05:03.299Z,7.70
2022-12-11T05:07:30.093Z,7.90
2022-12-11T05:09:56.833Z,7.90
2022-12-11T05:12:23.677Z,7.80
2022-12-11T05:14:54.464Z,7.80
2022-12-11T05:17:22.463Z,7.80
2022-12-11T05:19:50.890Z,7.70
2022-12-11T05:22:19.034Z,7.80
2022-12-11T05:24:46.081Z,7.80
2022-12-11T05:27:12.939Z,7.70
2022-12-11T05:29:39.727Z,7.70
2022-12-11T05:32:06.688Z,7.80
2022-12-11T05:34:33.517Z,7.80
2022-12-11T05:37:00.397Z,7.90
2022-12-11T05:39:27.281Z,7.90
2022-12-11T05:41:54.031Z,7.80
2022-12-11T05:44:20.823Z,8.00
2022-12-11T05:46:47.953Z,8.00
2022-12-11T05:49:17.477Z,8.00
2022-12-11T05:51:46.421Z,8.00
2022-12-11T05:54:13.366Z,8.10
2022-12-11T05:56:40.311Z,8.00
2022-12-11T05:59:07.922Z,8.00
2022-12-11T06:01:38.332Z,8.00
2022-12-11T06:04:06.739Z,8.00
2022-12-11T06:06:34.441Z,8.00
2022-12-11T06:09:02.103Z,8.00
2022-12-11T06:11:30.738Z,8.10
2022-12-11T06:13:58.175Z,8.10
2022-12-11T06:16:25.298Z,8.10
2022-12-11T06:18:57.028Z,8.10
2022-12-11T06:21:30.757Z,8.10
2022-12-11T06:24:02.110Z,8.20
2022-12-11T06:26:29.633Z,8.10
2022-12-11T06:28:56.404Z,8.00
2022-12-11T06:31:23.403Z,8.00
2022-12-11T06:33:50.192Z,8.00
2022-12-11T06:36:19.698Z,7.90
2022-12-11T06:38:47.795Z,7.90
2022-12-11T06:41:15.126Z,8.00
2022-12-11T06:43:43.054Z,8.10
2022-12-11T06:46:15.915Z,8.10
2022-12-11T06:48:43.691Z,8.10
2022-12-11T06:51:13.497Z,8.00
2022-12-11T06:53:41.268Z,7.90
2022-12-11T06:56:11.340Z,7.80
2022-12-11T06:58:38.640Z,7.80
2022-12-11T07:01:17.214Z,7.90
2022-12-11T07:03:44.357Z,7.90
2022-12-11T07:06:11.251Z,7.80
2022-12-11T07:08:38.350Z,8.00
2022-12-11T07:11:06.885Z,7.90
2022-12-11T07:13:34.152Z,7.90
2022-12-11T07:16:02.032Z,7.80
2022-12-11T07:18:28.998Z,7.80
2022-12-11T07:20:59.375Z,7.80
2022-12-11T07:23:28.328Z,7.80
2022-12-11T07:25:56.085Z,7.70
2022-12-11T07:28:23.282Z,7.80
2022-12-11T07:30:50.383Z,7.70
2022-12-11T07:33:17.223Z,7.80
2022-12-11T07:35:44.168Z,7.90
2022-12-11T07:38:10.973Z,7.90
2022-12-11T07:40:37.718Z,7.90
2022-12-11T07:43:04.454Z,7.90
2022-12-11T07:45:31.909Z,7.90
2022-12-11T07:47:59.151Z,7.80
2022-12-11T07:50:26.262Z,7.50
2022-12-11T07:52:53.091Z,7.30
2022-12-11T07:55:19.882Z,7.30
2022-12-11T07:57:46.728Z,7.20
2022-12-11T08:00:13.930Z,7.20
2022-12-11T08:02:40.805Z,7.30
2022-12-11T08:05:08.634Z,7.40
2022-12-11T08:07:36.098Z,7.40
2022-12-11T08:10:04.117Z,7.60
2022-12-11T08:12:31.469Z,7.80
2022-12-11T08:14:58.261Z,7.70
2022-12-11T08:17:30.108Z,7.70
2022-12-11T08:19:58.653Z,7.80
2022-12-11T08:22:25.650Z,7.60
2022-12-11T08:24:52.443Z,7.60
2022-12-11T08:27:19.338Z,7.50
2022-12-11T08:29:47.458Z,7.40
2022-12-11T08:32:16.740Z,7.40
2022-12-11T08:34:44.234Z,7.50
2022-12-11T08:37:11.191Z,7.30
2022-12-11T08:39:38.005Z,7.20
2022-12-11T08:42:05.258Z,7.20
2022-12-11T08:44:32.048Z,7.20
2022-12-11T08:46:59.099Z,7.00
2022-12-11T08:49:27.587Z,7.10
2022-12-11T08:51:57.954Z,7.20
2022-12-11T08:54:24.642Z,7.20
2022-12-11T08:56:57.639Z,7.20
2022-12-11T08:59:25.662Z,7.40
2022-12-11T09:01:52.514Z,7.30
2022-12-11T09:04:19.394Z,7.30
2022-12-11T09:06:46.128Z,7.50
2022-12-11T09:09:12.866Z,7.50
2022-12-11T09:11:39.607Z,7.80
2022-12-11T09:14:08.160Z,8.10
2022-12-11T09:16:38.053Z,8.20
2022-12-11T09:19:07.102Z,8.30
2022-12-11T09:21:34.182Z,8.40
2022-12-11T09:24:01.706Z,8.60
2022-12-11T09:26:30.039Z,8.70
2022-12-11T09:28:57.646Z,8.80
2022-12-11T09:31:27.684Z,8.80
2022-12-11T09:33:57.576Z,8.90
2022-12-11T09:36:25.139Z,8.90
2022-12-11T09:38:52.361Z,8.90
2022-12-11T09:41:22.192Z,9.00
2022-12-11T09:43:59.079Z,8.90
2022-12-11T09:46:33.555Z,9.00
2022-12-11T09:49:03.537Z,8.90
2022-12-11T09:52:01.950Z,9.00
2022-12-11T09:54:28.847Z,8.90
2022-12-11T09:57:10.538Z,9.00
2022-12-11T10:00:05.996Z,8.90
2022-12-11T10:03:01.011Z,9.00
2022-12-11T10:05:35.597Z,9.10
2022-12-11T10:08:40.179Z,9.00
2022-12-11T10:11:42.188Z,9.00
2022-12-11T10:14:36.949Z,9.10
2022-12-11T10:17:12.669Z,9.20
2022-12-11T10:19:41.358Z,9.20
2022-12-11T10:22:26.093Z,9.30
2022-12-11T10:25:11.603Z,9.30
2022-12-11T10:27:40.765Z,9.30
2022-12-11T10:30:15.897Z,9.40
2022-12-11T10:32:54.091Z,9.40
2022-12-11T10:35:30.207Z,9.40
2022-12-11T10:38:19.884Z,9.30
2022-12-11T10:40:55.019Z,9.40
2022-12-11T10:43:34.508Z,9.30
2022-12-11T10:46:01.593Z,9.30
2022-12-11T10:48:28.295Z,9.30
2022-12-11T10:51:04.255Z,9.40
2022-12-11T10:53:32.220Z,9.50
2022-12-11T10:56:00.591Z,9.40
2022-12-11T10:58:33.961Z,9.40
2022-12-11T11:01:06.074Z,9.50
2022-12-11T11:03:33.829Z,9.50
2022-12-11T11:06:15.210Z,9.50
2022-12-11T11:08:47.751Z,9.50
2022-12-11T11:11:23.647Z,9.50
2022-12-11T11:13:50.895Z,9.50
2022-12-11T11:16:21.035Z,9.50
2022-12-11T11:18:54.178Z,9.40
2022-12-11T11:21:23.804Z,9.40
2022-12-11T11:23:53.602Z,9.40
2022-12-11T11:26:22.885Z,9.50
2022-12-11T11:28:52.392Z,9.60
2022-12-11T11:31:20.263Z,9.60
2022-12-11T11:33:52.964Z,9.70
2022-12-11T11:36:27.870Z,9.70
2022-12-11T11:39:08.781Z,9.70
2022-12-11T11:41:57.089Z,9.60
2022-12-11T11:44:31.659Z,9.60
2022-12-11T11:47:14.693Z,9.60
2022-12-11T11:49:57.279Z,9.60
2022-12-11T11:52:47.577Z,9.50
2022-12-11T11:55:25.335Z,9.50
2022-12-11T11:58:05.092Z,9.50
2022-12-11T12:00:33.936Z,9.50
2022-12-11T12:03:13.951Z,9.40
2022-12-11T12:05:49.119Z,9.30
2022-12-11T12:08:40.777Z,9.30
2022-12-11T12:11:28.312Z,9.30
2022-12-11T12:14:43.648Z,9.10
2022-12-11T12:17:09.395Z,9.10
2022-12-11T12:19:55.201Z,9.10
2022-12-11T12:22:30.788Z,9.10
2022-12-11T12:25:03.313Z,9.00
2022-12-11T12:27:53.491Z,9.00
2022-12-11T12:30:23.315Z,9.10
2022-12-11T12:32:59.528Z,9.20
2022-12-11T12:35:38.558Z,9.20
2022-12-11T12:38:28.285Z,9.10
2022-12-11T12:41:15.608Z,8.90
2022-12-11T12:43:48.267Z,8.70
2022-12-11T12:46:28.911Z,8.70
2022-12-11T12:48:58.900Z,8.70
2022-12-11T12:51:26.684Z,8.60
2022-12-11T12:54:00.337Z,8.70
2022-12-11T12:56:31.480Z,8.60
2022-12-11T12:58:58.426Z,8.60
2022-12-11T13:01:28.270Z,8.70
2022-12-11T13:04:03.727Z,8.70
2022-12-11T13:06:37.799Z,8.60
2022-12-11T13:09:25.797Z,8.60
2022-12-11T13:12:00.154Z,8.80
2022-12-11T13:14:32.673Z,8.70
2022-12-11T13:17:26.363Z,8.60
2022-12-11T13:20:15.261Z,8.50
2022-12-11T13:23:14.003Z,8.40
2022-12-11T13:25:53.198Z,8.40
2022-12-11T13:28:22.179Z,8.60
2022-12-11T13:31:05.148Z,8.70
2022-12-11T13:33:32.994Z,8.90
2022-12-11T13:36:28.581Z,8.90
2022-12-11T13:39:06.330Z,8.80
2022-12-11T13:41:36.747Z,8.90
2022-12-11T13:44:05.295Z,8.90
2022-12-11T13:46:35.565Z,8.90
2022-12-11T13:49:05.091Z,8.90
2022-12-11T13:51:35.317Z,8.80
2022-12-11T13:54:17.817Z,8.70
2022-12-11T13:56:58.571Z,8.70
2022-12-11T13:59:37.187Z,8.80
2022-12-11T14:02:11.545Z,8.80
2022-12-11T14:04:38.708Z,8.80
2022-12-11T14:07:08.881Z,8.90
2022-12-11T14:09:43.900Z,8.80
2022-12-11T14:12:20.154Z,8.90
2022-12-11T14:14:55.165Z,9.00
2022-12-11T14:17:27.947Z,9.10
2022-12-11T14:19:57.900Z,9.00
2022-12-11T14:22:27.596Z,9.10
2022-12-11T14:25:00.008Z,9.10
2022-12-11T14:27:27.668Z,9.10
2022-12-11T14:29:55.331Z,9.10
2022-12-11T14:32:44.767Z,9.10
2022-12-11T14:35:26.839Z,9.10
2022-12-11T14:37:54.769Z,9.10
2022-12-11T14:40:28.100Z,9.10
2022-12-11T14:43:01.574Z,9.10
2022-12-11T14:45:34.844Z,9.00
2022-12-11T14:48:05.934Z,8.90
2022-12-11T14:50:40.970Z,8.90
2022-12-11T14:53:15.546Z,9.00
2022-12-11T14:55:42.685Z,9.00
2022-12-11T14:58:22.645Z,8.90
2022-12-11T15:01:06.229Z,8.90
2022-12-11T15:03:35.997Z,8.90
2022-12-11T15:06:21.112Z,8.90
2022-12-11T15:08:47.910Z,8.90
2022-12-11T15:11:17.537Z,8.90
2022-12-11T15:13:59.617Z,8.90
2022-12-11T15:16:31.282Z,8.90
2022-12-11T15:18:58.897Z,8.90
2022-12-11T15:21:31.301Z,8.90
2022-12-11T15:24:00.534Z,9.00
2022-12-11T15:26:45.181Z,8.90
2022-12-11T15:29:32.269Z,8.90
2022-12-11T15:32:09.207Z,8.80
2022-12-11T15:34:49.322Z,8.80
2022-12-11T15:37:31.167Z,8.70
2022-12-11T15:40:00.170Z,8.70
2022-12-11T15:42:31.756Z,8.80
2022-12-11T15:44:59.886Z,8.80
2022-12-11T15:47:29.228Z,8.70
2022-12-11T15:50:02.771Z,8.70
2022-12-11T15:52:29.575Z,8.80
2022-12-11T15:54:56.413Z,8.70
2022-12-11T15:57:24.637Z,8.70
2022-12-11T15:59:54.042Z,8.60
2022-12-11T16:02:20.846Z,8.70
2022-12-11T16:04:47.627Z,8.70
2022-12-11T16:07:20.709Z,8.80
2022-12-11T16:09:47.702Z,8.80
2022-12-11T16:12:15.273Z,8.70
2022-12-11T16:14:43.136Z,8.70
2022-12-11T16:17:11.361Z,8.60
2022-12-11T16:19:38.512Z,8.40
2022-12-11T16:22:06.993Z,8.50
2022-12-11T16:24:33.944Z,8.60
2022-12-11T16:27:00.900Z,8.70
2022-12-11T16:29:28.444Z,8.70
2022-12-11T16:31:55.394Z,8.80
2022-12-11T16:34:28.484Z,8.80
2022-12-11T16:36:59.314Z,8.80
2022-12-11T16:39:26.549Z,8.80
2022-12-11T16:41:53.459Z,8.90
2022-12-11T16:44:21.737Z,8.80
2022-12-11T16:46:48.722Z,8.80
2022-12-11T16:49:16.343Z,8.80
2022-12-11T16:51:43.294Z,8.80
2022-12-11T16:54:11.167Z,8.90
2022-12-11T16:56:38.662Z,8.90
2022-12-11T16:59:06.392Z,8.90
2022-12-11T17:01:34.475Z,8.80
2022-12-11T17:04:01.342Z,8.80
2022-12-11T17:06:29.467Z,8.90
2022-12-11T17:08:56.271Z,8.90
2022-12-11T17:11:24.890Z,8.80
2022-12-11T17:13:59.670Z,8.80
2022-12-11T17:16:30.313Z,8.80
2022-12-11T17:18:58.223Z,8.80
2022-12-11T17:21:25.011Z,8.80
2022-12-11T17:23:51.957Z,8.70
2022-12-11T17:26:20.227Z,8.70
2022-12-11T17:28:48.460Z,8.70
2022-12-11T17:31:19.290Z,8.70
2022-12-11T17:33:47.035Z,8.60
2022-12-11T17:36:19.178Z,8.60
2022-12-11T17:38:45.889Z,8.60
2022-12-11T17:41:20.327Z,8.60
2022-12-11T17:43:49.191Z,8.60
2022-12-11T17:46:16.206Z,8.60
2022-12-11T17:48:43.069Z,8.70
2022-12-11T17:51:12.726Z,8.70
2022-12-11T17:53:40.155Z,8.70
2022-12-11T17:56:08.641Z,8.60
2022-12-11T17:58:35.714Z,8.60
2022-12-11T18:01:08.087Z,8.70
2022-12-11T18:03:35.333Z,8.60
2022-12-11T18:06:08.735Z,8.60
2022-12-11T18:08:35.829Z,8.70
2022-12-11T18:11:08.462Z,8.70
2022-12-11T18:13:36.176Z,8.60
2022-12-11T18:16:10.321Z,8.50
2022-12-11T18:18:37.491Z,8.40
2022-12-11T18:21:04.646Z,8.40
2022-12-11T18:23:31.644Z,8.40
2022-12-11T18:25:58.530Z,8.50
2022-12-11T18:28:25.432Z,8.40
2022-12-11T18:30:52.371Z,8.30
2022-12-11T18:33:19.161Z,8.30
2022-12-11T18:35:46.059Z,8.30
2022-12-11T18:38:12.895Z,8.30
2022-12-11T18:40:39.627Z,8.40
2022-12-11T18:43:06.329Z,8.20
2022-12-11T18:45:33.321Z,8.20
2022-12-11T18:48:00.115Z,8.20
2022-12-11T18:50:27.009Z,8.20
2022-12-11T18:52:54.685Z,8.10
2022-12-11T18:55:21.619Z,8.00
2022-12-11T18:57:48.716Z,7.90
2022-12-11T19:00:16.762Z,7.80
2022-12-11T19:02:43.652Z,7.70
2022-12-11T19:05:10.989Z,7.70
2022-12-11T19:07:38.084Z,7.80
2022-12-11T19:10:05.808Z,8.00
2022-12-11T19:12:32.485Z,8.00
2022-12-11T19:14:59.276Z,7.80
2022-12-11T19:17:28.526Z,7.90
2022-12-11T19:19:55.380Z,7.90
2022-12-11T19:22:22.198Z,7.90
2022-12-11T19:24:49.107Z,8.00
2022-12-11T19:27:15.908Z,8.00
2022-12-11T19:29:42.842Z,8.10
2022-12-11T19:32:09.737Z,8.00
2022-12-11T19:34:38.528Z,8.00
2022-12-11T19:37:05.572Z,8.10
2022-12-11T19:39:32.721Z,8.10
2022-12-11T19:41:59.905Z,8.00
2022-12-11T19:44:26.839Z,8.10
2022-12-11T19:46:54.016Z,8.00
2022-12-11T19:49:20.923Z,8.10
2022-12-11T19:51:47.857Z,8.20
2022-12-11T19:54:16.809Z,8.20
2022-12-11T19:56:44.477Z,8.20
2022-12-11T19:59:15.557Z,8.20
2022-12-11T20:01:43.167Z,8.20
2022-12-11T20:04:12.219Z,8.20
2022-12-11T20:06:43.098Z,8.20
2022-12-11T20:09:12.102Z,8.30
2022-12-11T20:11:40.725Z,8.30
2022-12-11T20:14:07.772Z,8.20
2022-12-11T20:17:02.147Z,8.20
2022-12-11T20:19:21.798Z,8.30
2022-12-11T20:21:48.526Z,8.40
2022-12-11T20:24:15.274Z,8.30
2022-12-11T20:26:43.185Z,8.30
2022-12-11T20:29:09.925Z,8.30
2022-12-11T20:31:37.394Z,8.30
2022-12-11T20:34:07.400Z,8.30
2022-12-11T20:36:35.267Z,8.30
2022-12-11T20:39:02.118Z,8.30
2022-12-11T20:41:29.462Z,8.30
2022-12-11T20:43:56.332Z,8.40
2022-12-11T20:46:25.235Z,8.30
2022-12-11T20:48:53.218Z,8.30
2022-12-11T20:51:25.847Z,8.10
2022-12-11T20:53:58.855Z,8.10
2022-12-11T20:56:29.738Z,8.00
2022-12-11T20:58:57.496Z,8.00
2022-12-11T21:01:25.698Z,8.00
2022-12-11T21:03:53.551Z,8.10
2022-12-11T21:06:23.645Z,8.10
2022-12-11T21:08:50.436Z,8.20
2022-12-11T21:11:17.431Z,8.20
2022-12-11T21:13:44.480Z,8.20
2022-12-11T21:16:11.884Z,8.20
2022-12-11T21:18:41.619Z,8.30
2022-12-11T21:21:08.349Z,8.30
2022-12-11T21:23:35.128Z,8.20
2022-12-11T21:26:03.325Z,8.20
2022-12-11T21:28:35.182Z,8.30
2022-12-11T21:31:05.959Z,8.30
2022-12-11T21:33:33.458Z,8.30
2022-12-11T21:36:01.274Z,8.30
2022-12-11T21:38:28.830Z,8.30
2022-12-11T21:40:56.206Z,8.30
2022-12-11T21:43:23.851Z,8.20
2022-12-11T21:46:07.034Z,8.00
2022-12-11T21:48:34.036Z,7.80
2022-12-11T21:51:15.306Z,7.80
2022-12-11T21:53:42.597Z,7.90
2022-12-11T21:56:12.674Z,8.00
2022-12-11T21:58:41.066Z,8.10
2022-12-11T22:01:15.368Z,8.00
2022-12-11T22:03:42.203Z,8.00
2022-12-11T22:06:09.449Z,8.00
2022-12-11T22:08:36.207Z,8.10
2022-12-11T22:11:03.150Z,8.10
2022-12-11T22:13:29.994Z,8.00
2022-12-11T22:15:56.941Z,8.00
2022-12-11T22:18:27.061Z,7.90
2022-12-11T22:20:58.397Z,7.90
2022-12-11T22:23:25.565Z,7.90
2022-12-11T22:25:53.685Z,7.90
2022-12-11T22:28:20.628Z,7.90
2022-12-11T22:30:48.173Z,8.00
2022-12-11T22:33:15.462Z,7.90
2022-12-11T22:35:42.385Z,7.90
2022-12-11T22:38:09.279Z,7.90
2022-12-11T22:40:40.790Z,7.90
2022-12-11T22:43:07.775Z,8.00
2022-12-11T22:45:39.816Z,7.90
2022-12-11T22:48:10.421Z,7.90
2022-12-11T22:50:38.574Z,7.80
2022-12-11T22:53:06.155Z,7.90
2022-12-11T22:55:33.000Z,7.90
2022-12-11T22:58:00.197Z,7.90
2022-12-11T23:00:27.042Z,7.90
2022-12-11T23:02:53.944Z,8.00
2022-12-11T23:05:20.879Z,8.10
2022-12-11T23:07:47.857Z,8.10
2022-12-11T23:10:14.822Z,8.10
2022-12-11T23:12:41.667Z,8.10
2022-12-11T23:15:09.239Z,8.10
2022-12-11T23:17:36.323Z,8.10
2022-12-11T23:20:05.788Z,8.20
2022-12-11T23:22:33.132Z,8.10
2022-12-11T23:25:00.230Z,8.10
2022-12-11T23:27:27.073Z,8.10
2022-12-11T23:29:54.955Z,8.10
2022-12-11T23:32:22.602Z,8.20
2022-12-11T23:34:49.344Z,8.20
2022-12-11T23:37:16.188Z,8.20
2022-12-11T23:39:42.991Z,8.20
2022-12-11T23:42:09.719Z,8.20
2022-12-11T23:44:36.459Z,8.20
2022-12-11T23:47:03.413Z,8.20
2022-12-11T23:49:30.246Z,8.10
2022-12-11T23:51:57.126Z,8.20
2022-12-11T23:54:23.972Z,8.20
2022-12-11T23:56:51.722Z,8.20
2022-12-11T23:59:18.487Z,8.20
